HECA/CAI METAR and TAF weather

Enter ICAO airport designator
Station Type Date Time Source
HECA METAR 2019/09/21 21:00 UTC NOAA

HECA 212100Z 35007KT CAVOK 25/20 Q1014 NOSIG


Station Type Date Time Source
HECA Decoded METAR 2019/09/21 21:00 UTC NOAA

Cairo Airport, Egypt (HECA) 30-08N 031-24E 74M
Sep 21, 2019 - 05:00 PM EDT / 2019.09.21 2100 UTC
Wind: from the N (350 degrees) at 8 MPH (7 KT):0
Visibility: greater than 7 mile(s):0
Temperature: 77 F (25 C)
Dew Point: 68 F (20 C)
Relative Humidity: 73%
Pressure (altimeter): 29.94 in. Hg (1014 hPa)
ob: HECA 212100Z 35007KT CAVOK 25/20 Q1014 NOSIG
cycle: 21

Station Type Date Time Source
HECA TAF 2019/09/21 18:40 UTC NOAA

TAF HECA 211700Z 2118/2224 36010KT CAVOK
TEMPO 2202/2206 VRB03KT 3000 BR NSC

Example: see airport list